Time;durP1;ratioP1;P1;durP2;ratioP2;P2;SDS_P1;SDS_P2;PMS_P1;PMS_P2;Temp;Humidity;BMP_temperature;BMP_pressure;BME280_temperature;BME280_humidity;BME280_pressure;Samples;Min_cycle;Max_cycle;Signal;HPM_P1;HPM_P2
2021/06/09 00:00:12;;;;;;;26.80;24.50;;;16.30;99.90;;;;;;5007633;28;20654;-70
2021/06/09 00:02:38;;;;;;;28.53;25.87;;;16.20;99.90;;;;;;5007732;28;20642;-71
2021/06/09 00:05:05;;;;;;;29.63;26.13;;;16.20;99.90;;;;;;5005666;28;20492;-70
2021/06/09 00:07:30;;;;;;;27.77;25.10;;;16.20;99.90;;;;;;5008092;28;20436;-70
2021/06/09 00:09:56;;;;;;;28.07;25.47;;;16.20;99.90;;;;;;5007795;28;20515;-71
2021/06/09 00:12:21;;;;;;;29.10;26.40;;;16.10;99.90;;;;;;5006896;28;20256;-70
2021/06/09 00:14:47;;;;;;;28.60;25.80;;;16.10;99.90;;;;;;4995710;28;20244;-71
2021/06/09 00:17:13;;;;;;;28.17;25.63;;;16.10;99.90;;;;;;5000219;28;20268;-70
2021/06/09 00:19:39;;;;;;;29.40;26.50;;;16.10;99.90;;;;;;5005778;28;20439;-71
2021/06/09 00:22:05;;;;;;;28.07;25.27;;;16.10;99.90;;;;;;5006283;28;20424;-70
2021/06/09 00:24:31;;;;;;;29.27;26.37;;;16.00;99.90;;;;;;5006422;28;20284;-70
2021/06/09 00:26:56;;;;;;;28.03;25.37;;;16.00;99.90;;;;;;5002494;28;20620;-70
2021/06/09 00:29:22;;;;;;;31.33;28.13;;;16.00;99.90;;;;;;5001297;28;20432;-70
2021/06/09 00:31:49;;;;;;;49.63;42.07;;;16.00;99.90;;;;;;4995358;28;20204;-71
2021/06/09 00:34:15;;;;;;;44.60;36.10;;;16.00;99.90;;;;;;4994190;28;20201;-71
2021/06/09 00:36:40;;;;;;;44.23;37.00;;;15.90;99.90;;;;;;4989913;28;20439;-71
2021/06/09 00:39:06;;;;;;;40.23;36.07;;;15.90;99.90;;;;;;5007859;28;20653;-70
2021/06/09 00:41:33;;;;;;;40.33;34.10;;;15.90;99.90;;;;;;5004026;28;20335;-70
2021/06/09 00:44:00;;;;;;;31.53;28.30;;;15.90;99.90;;;;;;5000391;28;20935;-71
2021/06/09 00:46:34;;;;;;;34.07;30.60;;;15.90;99.90;;;;;;5023209;28;20508;-71
2021/06/09 00:49:00;;;;;;;32.47;29.27;;;15.80;99.90;;;;;;5022619;28;20446;-70
2021/06/09 00:51:26;;;;;;;31.27;27.97;;;15.80;99.90;;;;;;5002399;28;20470;-71
2021/06/09 00:53:55;;;;;;;32.10;29.17;;;15.80;99.90;;;;;;4997064;28;20549;-71
2021/06/09 00:56:22;;;;;;;31.50;28.37;;;15.80;99.90;;;;;;5003321;28;20184;-70
2021/06/09 00:58:50;;;;;;;30.33;27.47;;;15.80;99.90;;;;;;5005592;28;20459;-70
2021/06/09 01:01:17;;;;;;;29.97;27.07;;;15.80;99.90;;;;;;4999972;28;20433;-70
2021/06/09 01:03:43;;;;;;;31.70;28.70;;;15.70;99.90;;;;;;5001918;28;20435;-70
2021/06/09 01:06:09;;;;;;;28.57;25.97;;;15.70;99.90;;;;;;5001978;28;21136;-70
2021/06/09 01:08:36;;;;;;;30.97;27.97;;;15.70;99.90;;;;;;5009234;28;20538;-70
2021/06/09 01:11:07;;;;;;;30.17;27.43;;;15.70;99.90;;;;;;5006789;28;20188;-70
2021/06/09 01:13:33;;;;;;;28.90;25.90;;;15.60;99.90;;;;;;5001255;28;20468;-70
2021/06/09 01:15:59;;;;;;;29.77;26.83;;;15.60;99.90;;;;;;5001921;28;20428;-71
2021/06/09 01:18:25;;;;;;;31.10;28.20;;;15.60;99.90;;;;;;5007800;28;20186;-70
2021/06/09 01:20:52;;;;;;;31.63;28.63;;;15.60;99.90;;;;;;4996912;28;20491;-71
2021/06/09 01:23:18;;;;;;;28.63;25.93;;;15.60;99.90;;;;;;4999483;28;20432;-70
2021/06/09 01:25:44;;;;;;;31.03;28.10;;;15.60;99.90;;;;;;5002858;28;20428;-71
2021/06/09 01:28:10;;;;;;;30.47;27.47;;;15.60;99.90;;;;;;5004853;28;20515;-70
2021/06/09 01:30:37;;;;;;;29.00;26.23;;;15.50;99.90;;;;;;5003711;28;20446;-70
2021/06/09 01:33:07;;;;;;;28.87;26.23;;;15.60;99.90;;;;;;5007810;28;20268;-70
2021/06/09 01:35:33;;;;;;;29.93;27.30;;;15.50;99.90;;;;;;5019884;28;20574;-70
2021/06/09 01:38:00;;;;;;;29.67;26.77;;;15.50;99.90;;;;;;5001944;28;20443;-70
2021/06/09 01:40:26;;;;;;;30.00;27.23;;;15.50;99.90;;;;;;4999791;28;20462;-70
2021/06/09 01:42:53;;;;;;;31.23;28.20;;;15.50;99.90;;;;;;5012775;28;20433;-70
2021/06/09 01:45:25;;;;;;;30.30;27.50;;;15.50;99.90;;;;;;4995356;28;20950;-70
2021/06/09 01:47:51;;;;;;;28.77;26.27;;;15.50;99.90;;;;;;5003499;28;20823;-70
2021/06/09 01:50:18;;;;;;;29.73;27.13;;;15.40;99.90;;;;;;5004521;28;20427;-71
2021/06/09 01:52:45;;;;;;;29.80;27.00;;;15.40;99.90;;;;;;4995272;28;20425;-70
2021/06/09 01:55:13;;;;;;;29.70;26.90;;;15.40;99.90;;;;;;5004809;28;20431;-70
2021/06/09 01:57:39;;;;;;;30.50;27.43;;;15.40;99.90;;;;;;5010653;28;20443;-70
2021/06/09 02:00:17;;;;;;;30.10;27.10;;;15.40;99.90;;;;;;5010031;28;20451;-71
2021/06/09 02:02:42;;;;;;;29.77;26.87;;;15.40;99.90;;;;;;4996640;28;20506;-70
2021/06/09 02:05:10;;;;;;;28.00;25.33;;;15.40;99.90;;;;;;4996213;28;20427;-72
2021/06/09 02:07:41;;;;;;;29.70;26.80;;;15.30;99.90;;;;;;4991676;28;20447;-72
2021/06/09 02:10:13;;;;;;;31.07;28.20;;;15.30;99.90;;;;;;4992343;28;20427;-72
2021/06/09 02:12:41;;;;;;;29.10;26.30;;;15.30;99.90;;;;;;4993861;28;20510;-72
2021/06/09 02:15:07;;;;;;;28.93;25.90;;;15.30;99.90;;;;;;5010622;28;20464;-72
2021/06/09 02:17:34;;;;;;;30.23;27.37;;;15.30;99.90;;;;;;4999119;28;20929;-72
2021/06/09 02:20:01;;;;;;;27.80;25.13;;;15.30;99.90;;;;;;4995984;28;20480;-72
2021/06/09 02:22:28;;;;;;;28.63;25.73;;;15.20;99.90;;;;;;4993298;28;20434;-72
2021/06/09 02:24:54;;;;;;;28.57;25.73;;;15.20;99.90;;;;;;4993522;28;20439;-72
2021/06/09 02:27:19;;;;;;;28.77;25.97;;;15.20;99.90;;;;;;4997411;28;20788;-72
2021/06/09 02:29:45;;;;;;;29.27;26.67;;;15.20;99.90;;;;;;4995745;28;21196;-72
2021/06/09 02:32:15;;;;;;;29.40;26.47;;;15.20;99.90;;;;;;4992567;28;20522;-72
2021/06/09 02:34:41;;;;;;;31.30;28.03;;;15.10;99.90;;;;;;4993804;28;20224;-72
2021/06/09 02:37:09;;;;;;;31.00;27.90;;;15.10;99.90;;;;;;4994066;28;20465;-72
2021/06/09 02:39:34;;;;;;;30.30;27.23;;;15.10;99.90;;;;;;5015361;28;20184;-72
2021/06/09 02:42:00;;;;;;;32.17;28.97;;;15.10;99.90;;;;;;5008664;28;20860;-72
2021/06/09 02:44:26;;;;;;;33.17;29.87;;;15.10;99.90;;;;;;5009324;28;20200;-72
2021/06/09 02:47:00;;;;;;;33.47;29.93;;;15.10;99.90;;;;;;5008240;28;20655;-72
2021/06/09 02:49:28;;;;;;;30.10;27.30;;;15.10;99.90;;;;;;5006062;28;21699;-70
2021/06/09 02:52:02;;;;;;;33.23;30.10;;;15.10;99.90;;;;;;5001838;28;20434;-70
2021/06/09 02:54:41;;;;;;;34.50;30.90;;;15.10;99.90;;;;;;5004284;28;21045;-70
2021/06/09 02:57:25;;;;;;;34.27;30.97;;;15.10;99.90;;;;;;4999706;28;20926;-71
2021/06/09 03:00:06;;;;;;;32.60;29.30;;;15.10;99.90;;;;;;5008628;28;20868;-71
2021/06/09 03:02:47;;;;;;;32.27;29.03;;;15.00;99.90;;;;;;4999380;28;20427;-70
2021/06/09 03:05:27;;;;;;;32.57;29.37;;;15.00;99.90;;;;;;5004704;28;20544;-70
2021/06/09 03:08:02;;;;;;;32.57;29.30;;;15.00;99.90;;;;;;5007310;28;20429;-70
2021/06/09 03:10:44;;;;;;;36.27;29.27;;;15.00;99.90;;;;;;5006492;28;20516;-70
2021/06/09 03:13:34;;;;;;;33.23;29.83;;;15.00;99.90;;;;;;5008742;28;20467;-71
2021/06/09 03:16:04;;;;;;;33.57;30.17;;;15.00;99.90;;;;;;5003031;28;20422;-71
2021/06/09 03:18:47;;;;;;;30.40;27.00;;;15.00;99.90;;;;;;5008979;28;20438;-71
2021/06/09 03:21:29;;;;;;;32.13;28.93;;;14.90;99.90;;;;;;5006731;28;20847;-71
2021/06/09 03:24:21;;;;;;;36.40;32.80;;;14.90;99.90;;;;;;5009487;28;20428;-70
2021/06/09 03:26:50;;;;;;;33.33;30.23;;;14.90;99.90;;;;;;4990501;28;20975;-71
2021/06/09 03:29:40;;;;;;;34.43;30.93;;;14.90;99.90;;;;;;4999658;28;20442;-71
2021/06/09 03:32:09;;;;;;;32.93;29.77;;;14.90;99.90;;;;;;5004845;28;20441;-70
2021/06/09 03:35:00;;;;;;;34.97;31.30;;;14.90;99.90;;;;;;5004851;28;20496;-71
2021/06/09 03:37:29;;;;;;;33.83;30.63;;;14.90;99.90;;;;;;5015413;28;20450;-71
2021/06/09 03:39:58;;;;;;;33.57;30.07;;;14.90;99.90;;;;;;5005600;28;20521;-71
2021/06/09 03:42:28;;;;;;;32.63;29.17;;;14.90;99.90;;;;;;5007182;28;20439;-71
2021/06/09 03:44:57;;;;;;;34.77;29.00;;;14.90;99.90;;;;;;4989133;28;20426;-70
2021/06/09 03:47:24;;;;;;;33.20;30.07;;;14.90;99.90;;;;;;4996515;28;20434;-70
2021/06/09 03:49:51;;;;;;;33.77;30.43;;;14.90;99.90;;;;;;4986832;28;20463;-70
2021/06/09 03:52:18;;;;;;;31.83;28.83;;;14.90;99.90;;;;;;5006549;28;20439;-71
2021/06/09 03:54:47;;;;;;;35.63;31.93;;;14.90;99.90;;;;;;5010570;28;20480;-71
2021/06/09 03:57:14;;;;;;;33.50;30.50;;;14.90;99.90;;;;;;4992811;28;20431;-71
2021/06/09 03:59:42;;;;;;;31.23;28.43;;;14.90;99.90;;;;;;4993698;28;20597;-71
2021/06/09 04:02:08;;;;;;;32.80;29.40;;;14.90;99.90;;;;;;5000970;28;20938;-70
2021/06/09 04:04:35;;;;;;;34.20;30.87;;;14.90;99.90;;;;;;4998889;28;20518;-70
2021/06/09 04:07:02;;;;;;;35.73;31.93;;;15.00;99.90;;;;;;5000875;28;20919;-70
2021/06/09 04:09:29;;;;;;;32.67;29.40;;;15.00;99.90;;;;;;5008035;28;20441;-71
2021/06/09 04:12:00;;;;;;;36.13;32.50;;;15.00;99.90;;;;;;5000791;28;20916;-70
2021/06/09 04:14:37;;;;;;;33.47;30.00;;;15.10;99.90;;;;;;5008593;28;20461;-71
2021/06/09 04:17:05;;;;;;;32.27;29.20;;;15.10;99.90;;;;;;5005605;28;20947;-71
2021/06/09 04:19:32;;;;;;;32.67;29.57;;;15.10;99.90;;;;;;5005911;28;20436;-71
2021/06/09 04:21:59;;;;;;;33.00;29.80;;;15.10;99.90;;;;;;5006383;28;21043;-70
2021/06/09 04:24:24;;;;;;;35.33;32.03;;;15.10;99.90;;;;;;5008235;28;20438;-71
2021/06/09 04:26:53;;;;;;;33.03;29.80;;;15.10;99.90;;;;;;5004513;28;20547;-71
2021/06/09 04:29:21;;;;;;;33.97;30.60;;;15.10;99.90;;;;;;5006496;28;20199;-71
2021/06/09 04:31:47;;;;;;;35.77;32.17;;;15.10;99.90;;;;;;4998983;28;20458;-71
2021/06/09 04:34:12;;;;;;;33.00;29.67;;;15.10;99.90;;;;;;5005228;28;20475;-71
2021/06/09 04:36:38;;;;;;;36.60;32.73;;;15.10;99.90;;;;;;5007460;28;20434;-71
2021/06/09 04:39:04;;;;;;;35.70;32.20;;;15.10;99.90;;;;;;5006212;28;20184;-71
2021/06/09 04:41:30;;;;;;;34.57;31.03;;;15.10;99.90;;;;;;5003951;28;20220;-71
2021/06/09 04:43:57;;;;;;;34.83;31.40;;;15.20;99.90;;;;;;5005894;28;20501;-71
2021/06/09 04:46:24;;;;;;;36.07;32.40;;;15.20;99.90;;;;;;5006385;28;20562;-70
2021/06/09 04:48:57;;;;;;;33.60;30.20;;;15.20;99.90;;;;;;5007191;28;20427;-71
2021/06/09 04:51:32;;;;;;;34.03;30.13;;;15.30;99.90;;;;;;4992224;28;21032;-70
2021/06/09 04:53:59;;;;;;;34.97;31.60;;;15.30;99.90;;;;;;5009124;28;20480;-70
2021/06/09 04:56:33;;;;;;;35.73;32.20;;;15.30;99.90;;;;;;5005937;28;20436;-70
2021/06/09 04:59:01;;;;;;;33.20;29.87;;;15.40;99.90;;;;;;5006872;28;20454;-70
2021/06/09 05:01:27;;;;;;;35.33;31.93;;;15.40;99.90;;;;;;5002350;28;20998;-70
2021/06/09 05:03:52;;;;;;;34.53;31.00;;;15.50;99.90;;;;;;5009084;28;20955;-70
2021/06/09 05:06:18;;;;;;;35.40;31.70;;;15.50;99.90;;;;;;5009571;28;20438;-70
2021/06/09 05:08:43;;;;;;;35.50;32.10;;;15.60;99.90;;;;;;5010061;28;20196;-70
2021/06/09 05:11:15;;;;;;;35.87;32.17;;;15.60;99.90;;;;;;5010527;28;20204;-70
2021/06/09 05:13:43;;;;;;;33.47;30.13;;;15.70;99.90;;;;;;5010245;28;20208;-71
2021/06/09 05:16:12;;;;;;;36.20;32.50;;;15.80;99.90;;;;;;5010906;28;20519;-70
2021/06/09 05:18:48;;;;;;;38.10;34.30;;;15.80;99.90;;;;;;5011488;28;20478;-70
2021/06/09 05:21:19;;;;;;;34.93;31.33;;;15.90;99.90;;;;;;4994360;28;20439;-70
2021/06/09 05:23:52;;;;;;;37.80;34.00;;;16.00;99.90;;;;;;5002672;28;20428;-70
2021/06/09 05:26:18;;;;;;;53.57;36.10;;;16.10;99.90;;;;;;4998118;28;20961;-70
2021/06/09 05:28:48;;;;;;;48.67;35.80;;;16.10;99.90;;;;;;5010299;28;20446;-71
2021/06/09 05:31:16;;;;;;;41.37;36.13;;;16.20;99.90;;;;;;5005744;28;20960;-70
2021/06/09 05:33:43;;;;;;;38.03;34.00;;;16.30;99.90;;;;;;5008660;28;21031;-70
2021/06/09 05:36:09;;;;;;;39.00;35.07;;;16.40;99.90;;;;;;5012913;28;20781;-70
2021/06/09 05:38:36;;;;;;;38.97;35.10;;;16.40;99.90;;;;;;5010591;28;20558;-70
2021/06/09 05:41:05;;;;;;;38.20;33.87;;;16.50;99.90;;;;;;5008746;28;20456;-70
2021/06/09 05:43:31;;;;;;;39.57;35.27;;;16.60;99.90;;;;;;5010738;28;20439;-70
2021/06/09 05:45:58;;;;;;;39.33;35.20;;;16.70;99.90;;;;;;5005485;28;20543;-70
2021/06/09 05:48:24;;;;;;;38.53;33.60;;;16.70;99.90;;;;;;4998892;28;20466;-70
2021/06/09 05:50:52;;;;;;;38.00;34.13;;;16.90;99.90;;;;;;5001453;28;20440;-70
2021/06/09 05:53:20;;;;;;;39.20;35.10;;;17.00;99.90;;;;;;4997008;28;20460;-70
2021/06/09 05:55:52;;;;;;;35.67;32.13;;;17.10;99.90;;;;;;5003425;28;20437;-70
2021/06/09 05:58:21;;;;;;;36.73;33.03;;;17.20;99.90;;;;;;5007277;28;20466;-70
2021/06/09 06:00:54;;;;;;;35.03;31.60;;;17.20;99.90;;;;;;4993777;28;20857;-70
2021/06/09 06:03:22;;;;;;;36.80;33.20;;;17.40;99.90;;;;;;5003579;28;20437;-70
2021/06/09 06:05:54;;;;;;;36.17;32.33;;;17.50;99.90;;;;;;5000978;28;20475;-71
2021/06/09 06:08:20;;;;;;;36.43;32.70;;;17.60;99.90;;;;;;5002017;28;20459;-70
2021/06/09 06:10:46;;;;;;;35.10;31.40;;;17.70;99.90;;;;;;5006681;28;20482;-71
2021/06/09 06:13:14;;;;;;;33.90;30.70;;;17.90;99.90;;;;;;5000072;28;20456;-71
2021/06/09 06:15:42;;;;;;;33.73;30.23;;;18.00;99.90;;;;;;5007523;28;20236;-70
2021/06/09 06:18:07;;;;;;;33.03;29.67;;;18.10;99.90;;;;;;5005091;28;20450;-70
2021/06/09 06:20:33;;;;;;;43.17;32.63;;;18.30;99.90;;;;;;5000882;28;20421;-70
2021/06/09 06:22:59;;;;;;;35.57;31.40;;;18.40;99.90;;;;;;5004697;28;20316;-70
2021/06/09 06:25:25;;;;;;;33.33;29.37;;;18.50;99.90;;;;;;4999262;28;20179;-70
2021/06/09 06:27:53;;;;;;;34.00;28.77;;;18.60;99.90;;;;;;4992083;28;20429;-70
2021/06/09 06:30:22;;;;;;;30.27;27.37;;;18.80;99.90;;;;;;5006920;28;20180;-70
2021/06/09 06:32:53;;;;;;;31.50;26.80;;;18.90;99.90;;;;;;4985226;28;20467;-70
2021/06/09 06:35:21;;;;;;;29.77;26.97;;;19.10;99.90;;;;;;5004260;28;20440;-70
2021/06/09 06:37:49;;;;;;;30.50;27.60;;;19.20;99.90;;;;;;5010651;28;20467;-70
2021/06/09 06:40:28;;;;;;;33.37;30.07;;;19.30;99.90;;;;;;5005031;28;20550;-70
2021/06/09 06:42:56;;;;;;;31.60;28.47;;;19.40;99.90;;;;;;5022797;28;20432;-70
2021/06/09 06:45:25;;;;;;;32.83;29.23;;;19.50;99.90;;;;;;5006281;28;20979;-70
2021/06/09 06:47:54;;;;;;;32.10;28.90;;;19.70;99.90;;;;;;5010199;28;20429;-70
2021/06/09 06:50:25;;;;;;;33.47;29.77;;;19.80;99.90;;;;;;5003284;28;20958;-71
2021/06/09 06:52:55;;;;;;;33.00;29.60;;;19.90;99.90;;;;;;5010497;28;20443;-70
2021/06/09 06:55:22;;;;;;;29.87;26.97;;;20.00;99.90;;;;;;5003125;28;20429;-70
2021/06/09 06:57:49;;;;;;;30.40;27.47;;;20.10;99.90;;;;;;5001909;28;20442;-70
2021/06/09 07:00:20;;;;;;;29.47;26.63;;;20.30;99.90;;;;;;5010228;28;20461;-70
2021/06/09 07:02:53;;;;;;;28.73;25.80;;;20.40;99.90;;;;;;5011612;28;20479;-70
2021/06/09 07:05:20;;;;;;;30.43;27.30;;;20.50;99.90;;;;;;5004370;28;20425;-70
2021/06/09 07:07:47;;;;;;;31.73;28.60;;;20.70;99.90;;;;;;5009526;28;20458;-70
2021/06/09 07:10:17;;;;;;;28.23;25.33;;;20.80;99.90;;;;;;5004193;28;20458;-70
2021/06/09 07:12:44;;;;;;;32.40;29.27;;;21.00;99.90;;;;;;4995977;28;20935;-70
2021/06/09 07:15:12;;;;;;;29.70;26.70;;;21.20;99.90;;;;;;5002427;28;20991;-70
2021/06/09 07:17:40;;;;;;;30.50;27.60;;;21.40;99.90;;;;;;4999186;28;20486;-71
2021/06/09 07:20:09;;;;;;;29.47;26.57;;;21.60;99.90;;;;;;4998589;28;21132;-71
2021/06/09 07:22:40;;;;;;;30.67;27.57;;;21.80;99.90;;;;;;5001071;28;20809;-70
2021/06/09 07:25:08;;;;;;;28.00;24.23;;;22.10;99.90;;;;;;4988692;28;20437;-71
2021/06/09 07:27:41;;;;;;;28.03;25.03;;;22.50;99.90;;;;;;4997776;28;20528;-71
2021/06/09 07:30:10;;;;;;;25.60;22.83;;;23.20;99.90;;;;;;5002532;28;20439;-71
2021/06/09 07:32:41;;;;;;;24.67;21.73;;;24.00;99.90;;;;;;5007789;28;20436;-71
2021/06/09 07:35:07;;;;;;;23.33;20.63;;;24.90;99.90;;;;;;5003034;28;20456;-71
2021/06/09 07:37:40;;;;;;;21.23;19.13;;;25.90;99.90;;;;;;5000785;28;20476;-71
2021/06/09 07:40:08;;;;;;;20.70;18.70;;;27.00;99.90;;;;;;4999334;28;20503;-71
